Time;durP1;ratioP1;P1;durP2;ratioP2;P2;SDS_P1;SDS_P2;PMS_P1;PMS_P2;Temp;Humidity;BMP_temperature;BMP_pressure;BME280_temperature;BME280_humidity;BME280_pressure;Samples;Min_cycle;Max_cycle;Signal;HPM_P1;HPM_P2
2021/06/02 00:00:46;;;;;;;31.73;22.73;;;17.70;76.70;;;;;;5020378;28;20132;-80
2021/06/02 00:03:14;;;;;;;29.73;23.08;;;17.70;76.90;;;;;;5019334;28;20502;-80
2021/06/02 00:05:41;;;;;;;31.17;21.10;;;17.70;77.30;;;;;;5020232;28;20028;-81
2021/06/02 00:08:11;;;;;;;39.17;23.17;;;17.70;77.30;;;;;;5036839;28;20025;-81
2021/06/02 00:10:36;;;;;;;;;;;17.70;77.30;;;;;;5021856;28;20033;-79
2021/06/02 00:13:02;;;;;;;29.35;21.23;;;17.70;76.80;;;;;;5037874;28;19904;-80
2021/06/02 00:15:28;;;;;;;29.88;22.42;;;17.70;76.70;;;;;;5036477;28;20028;-79
2021/06/02 00:17:55;;;;;;;28.20;21.50;;;17.70;77.10;;;;;;5037073;28;20033;-80
2021/06/02 00:20:21;;;;;;;26.35;20.55;;;17.60;77.40;;;;;;5038741;28;20021;-79
2021/06/02 00:22:47;;;;;;;31.88;21.13;;;17.60;77.60;;;;;;5039077;28;20032;-79
2021/06/02 00:25:13;;;;;;;28.02;19.38;;;17.60;77.80;;;;;;5021956;28;20037;-81
2021/06/02 00:27:41;;;;;;;28.88;21.33;;;17.50;78.10;;;;;;5038759;28;20104;-80
2021/06/02 00:30:09;;;;;;;26.92;20.77;;;17.40;78.40;;;;;;5038621;28;20017;-79
2021/06/02 00:32:35;;;;;;;31.80;20.23;;;17.30;78.70;;;;;;5056097;28;20021;-81
2021/06/02 00:35:03;;;;;;;28.38;20.02;;;17.20;79.00;;;;;;5038193;28;20030;-80
2021/06/02 00:37:29;;;;;;;30.38;19.35;;;17.10;79.50;;;;;;5056349;28;20021;-80
2021/06/02 00:39:56;;;;;;;26.85;18.63;;;17.00;79.90;;;;;;5037313;28;20021;-80
2021/06/02 00:42:29;;;;;;;29.23;19.98;;;17.00;80.30;;;;;;5038009;28;20399;-79
2021/06/02 00:44:56;;;;;;;27.35;19.10;;;17.00;80.70;;;;;;5055832;28;20030;-80
2021/06/02 00:47:23;;;;;;;26.23;19.10;;;17.00;80.80;;;;;;5022876;28;20232;-81
2021/06/02 00:49:50;;;;;;;34.03;21.20;;;17.00;81.00;;;;;;5040097;28;20024;-80
2021/06/02 00:52:16;;;;;;;32.63;19.83;;;17.00;81.30;;;;;;5040037;28;20027;-80
2021/06/02 00:54:42;;;;;;;31.67;21.98;;;17.00;81.40;;;;;;5037253;28;20025;-80
2021/06/02 00:57:11;;;;;;;24.90;19.80;;;17.00;81.60;;;;;;5038002;28;20388;-80
2021/06/02 01:00:03;;;;;;;28.92;18.30;;;16.90;81.90;;;;;;5057330;28;20116;-80
2021/06/02 01:02:32;;;;;;;27.60;18.80;;;16.90;82.30;;;;;;5055319;28;20024;-81
2021/06/02 01:04:58;;;;;;;26.48;19.60;;;16.90;82.50;;;;;;5035288;28;20085;-79
2021/06/02 01:07:24;;;;;;;24.40;17.35;;;16.80;82.70;;;;;;5002172;28;20114;-79
2021/06/02 01:09:53;;;;;;;27.70;19.13;;;16.80;83.00;;;;;;5055402;28;20067;-80
2021/06/02 01:12:27;;;;;;;28.45;18.05;;;16.80;83.20;;;;;;5037989;28;20087;-79
2021/06/02 01:14:55;;;;;;;27.95;20.17;;;16.80;83.50;;;;;;5039122;28;20044;-80
2021/06/02 01:17:24;;;;;;;31.60;18.70;;;16.80;83.70;;;;;;5021346;28;20064;-80
2021/06/02 01:19:51;;;;;;;25.23;19.33;;;16.80;83.90;;;;;;5038291;28;20112;-80
2021/06/02 01:22:17;;;;;;;22.33;18.33;;;16.80;83.90;;;;;;5022377;28;20294;-79
2021/06/02 01:24:43;;;;;;;25.42;19.45;;;16.80;84.20;;;;;;5040085;28;20033;-79
2021/06/02 01:27:12;;;;;;;28.08;18.52;;;16.80;84.60;;;;;;5040098;28;20104;-80
2021/06/02 01:29:41;;;;;;;28.83;19.40;;;16.80;84.90;;;;;;5039425;28;20025;-81
2021/06/02 01:32:40;;;;;;;30.40;18.97;;;16.70;85.40;;;;;;5038668;28;20025;-80
2021/06/02 01:35:25;;;;;;;;;;;16.70;85.90;;;;;;5038544;28;20286;-80
2021/06/02 01:38:12;;;;;;;25.02;17.35;;;16.70;85.00;;;;;;5037343;28;19909;-80
2021/06/02 01:40:56;;;;;;;28.20;19.70;;;16.70;85.30;;;;;;5038072;28;20088;-80
2021/06/02 01:43:50;;;;;;;26.08;18.90;;;16.70;85.50;;;;;;5038196;28;20048;-80
2021/06/02 01:46:28;;;;;;;29.52;18.48;;;16.60;86.00;;;;;;5039738;28;20079;-79
2021/06/02 01:49:26;;;;;;;29.08;19.52;;;16.70;86.20;;;;;;5041199;28;20051;-79
2021/06/02 01:52:30;;;;;;;25.63;18.70;;;16.70;86.50;;;;;;5040097;28;20037;-80
2021/06/02 01:55:20;;;;;;;31.50;17.88;;;16.70;86.40;;;;;;5039072;28;20051;-80
2021/06/02 01:57:58;;;;;;;26.17;17.55;;;16.70;86.50;;;;;;5039047;28;20075;-80
2021/06/02 02:01:03;;;;;;;35.72;18.80;;;16.80;86.60;;;;;;5041000;28;20021;-79
2021/06/02 02:04:07;;;;;;;29.10;18.83;;;16.70;86.90;;;;;;5059741;28;20553;-79
2021/06/02 02:06:57;;;;;;;24.33;17.10;;;16.70;87.00;;;;;;5041528;28;20021;-79
2021/06/02 02:09:38;;;;;;;27.98;19.17;;;16.60;87.50;;;;;;5041828;28;20021;-80
2021/06/02 02:12:53;;;;;;;29.67;19.65;;;16.60;87.90;;;;;;5044543;28;20057;-79
2021/06/02 02:15:46;;;;;;;24.42;17.23;;;16.50;88.30;;;;;;5025398;28;20039;-80
2021/06/02 02:18:30;;;;;;;25.98;18.05;;;16.50;88.60;;;;;;5044101;28;20028;-79
2021/06/02 02:21:07;;;;;;;24.38;15.25;;;16.50;88.80;;;;;;5062526;28;20041;-80
2021/06/02 02:23:42;;;;;;;31.73;18.55;;;16.50;88.90;;;;;;5045034;28;20016;-80
2021/06/02 02:26:29;;;;;;;24.63;17.30;;;16.50;89.10;;;;;;5045118;28;20021;-79
2021/06/02 02:29:25;;;;;;;25.75;18.05;;;16.40;89.50;;;;;;5043215;28;20025;-79
2021/06/02 02:32:18;;;;;;;25.77;17.55;;;16.40;89.60;;;;;;5047037;28;20029;-80
2021/06/02 02:35:06;;;;;;;27.15;18.17;;;16.40;89.70;;;;;;5043570;28;20029;-79
2021/06/02 02:37:43;;;;;;;26.95;16.95;;;16.30;90.00;;;;;;5058035;28;20113;-79
2021/06/02 02:40:43;;;;;;;29.42;18.08;;;16.30;90.00;;;;;;5058669;28;20017;-80
2021/06/02 02:43:37;;;;;;;35.08;19.05;;;16.30;90.10;;;;;;4996363;28;20029;-79
2021/06/02 02:46:15;;;;;;;25.33;17.33;;;16.30;90.20;;;;;;5039870;28;20108;-80
2021/06/02 02:49:02;;;;;;;29.55;16.92;;;16.30;90.30;;;;;;5040078;28;20025;-80
2021/06/02 02:51:54;;;;;;;31.10;18.25;;;16.30;90.40;;;;;;5040742;28;20036;-79
2021/06/02 02:54:57;;;;;;;30.33;19.25;;;16.30;90.40;;;;;;5057864;28;20052;-79
2021/06/02 02:57:38;;;;;;;26.38;17.63;;;16.30;90.50;;;;;;5016423;28;20041;-78
2021/06/02 03:00:10;;;;;;;25.00;16.85;;;16.30;90.60;;;;;;5058770;28;20033;-79
2021/06/02 03:02:58;;;;;;;25.20;17.45;;;16.20;90.70;;;;;;5040174;28;20055;-79
2021/06/02 03:05:30;;;;;;;30.38;18.95;;;16.20;90.90;;;;;;5040059;28;20246;-79
2021/06/02 03:08:17;;;;;;;26.67;18.73;;;16.20;90.90;;;;;;5039917;28;20056;-80
2021/06/02 03:10:51;;;;;;;27.13;18.17;;;16.20;91.20;;;;;;5041834;28;20501;-81
2021/06/02 03:13:27;;;;;;;27.35;18.77;;;16.20;90.90;;;;;;5059478;28;20034;-79
2021/06/02 03:15:59;;;;;;;26.92;17.15;;;16.20;91.10;;;;;;5041414;28;20048;-80
2021/06/02 03:18:48;;;;;;;27.35;17.90;;;16.10;91.20;;;;;;5040200;28;20035;-80
2021/06/02 03:21:14;;;;;;;25.42;17.38;;;16.10;91.50;;;;;;5058855;28;20498;-79
2021/06/02 03:24:01;;;;;;;25.08;18.52;;;16.10;91.40;;;;;;5040688;28;20032;-79
2021/06/02 03:26:37;;;;;;;30.48;17.88;;;16.20;91.60;;;;;;5040419;28;20024;-79
2021/06/02 03:29:23;;;;;;;28.17;16.35;;;16.20;91.50;;;;;;5040926;28;20092;-79
2021/06/02 03:32:00;;;;;;;35.55;19.35;;;16.10;91.50;;;;;;5059757;28;20025;-79
2021/06/02 03:35:04;;;;;;;37.17;19.35;;;16.10;91.60;;;;;;5041109;28;20036;-79
2021/06/02 03:38:04;;;;;;;27.15;18.25;;;16.10;91.70;;;;;;5040584;28;20043;-79
2021/06/02 03:41:08;;;;;;;27.83;17.17;;;16.10;91.70;;;;;;5040504;28;20029;-80
2021/06/02 03:43:49;;;;;;;25.73;17.33;;;16.10;91.80;;;;;;5040444;28;20032;-80
2021/06/02 03:46:44;;;;;;;27.52;16.38;;;16.00;91.90;;;;;;5041196;28;20088;-80
2021/06/02 03:49:26;;;;;;;24.67;17.67;;;16.00;92.00;;;;;;5042026;28;20025;-78
2021/06/02 03:52:12;;;;;;;22.60;16.60;;;16.00;92.10;;;;;;5041447;28;20031;-78
2021/06/02 03:55:04;;;;;;;28.05;17.98;;;16.10;92.00;;;;;;5030107;28;20037;-79
2021/06/02 03:57:50;;;;;;;26.30;16.77;;;16.00;92.20;;;;;;5040548;28;20113;-79
2021/06/02 04:00:18;;;;;;;31.42;17.33;;;16.00;92.30;;;;;;5041580;28;20028;-80
2021/06/02 04:03:02;;;;;;;36.28;18.45;;;16.00;92.30;;;;;;5058094;28;20029;-79
2021/06/02 04:05:45;;;;;;;27.92;15.75;;;16.00;92.50;;;;;;5038685;28;20025;-79
2021/06/02 04:08:19;;;;;;;27.30;15.35;;;16.00;92.50;;;;;;5036164;28;20025;-80
2021/06/02 04:10:54;;;;;;;33.35;18.15;;;16.00;92.50;;;;;;5037417;28;20448;-80
2021/06/02 04:13:54;;;;;;;28.90;16.65;;;16.10;92.50;;;;;;5038530;28;20056;-79
2021/06/02 04:16:23;;;;;;;30.92;17.30;;;16.00;92.70;;;;;;5041550;28;20124;-79
2021/06/02 04:18:49;;;;;;;29.52;18.05;;;16.00;92.60;;;;;;5042296;28;20025;-79
2021/06/02 04:21:19;;;;;;;30.95;17.95;;;16.00;92.80;;;;;;5041994;28;20032;-79
2021/06/02 04:23:46;;;;;;;28.58;17.45;;;16.00;93.00;;;;;;5042479;28;20025;-80
2021/06/02 04:26:14;;;;;;;29.80;16.20;;;16.00;93.00;;;;;;5042090;28;20033;-79
2021/06/02 04:28:40;;;;;;;26.10;16.90;;;16.00;93.20;;;;;;5040637;28;20029;-80
2021/06/02 04:31:09;;;;;;;31.63;18.52;;;16.00;93.20;;;;;;5022544;28;20360;-79
2021/06/02 04:33:36;;;;;;;26.90;17.92;;;15.90;93.40;;;;;;5054298;28;20108;-80
2021/06/02 04:36:04;;;;;;;27.25;17.30;;;15.90;93.40;;;;;;5004556;28;20036;-80
2021/06/02 04:38:31;;;;;;;27.52;17.75;;;15.90;93.50;;;;;;5004600;28;20068;-80
2021/06/02 04:41:08;;;;;;;36.20;19.77;;;16.00;93.60;;;;;;5021310;28;20025;-80
2021/06/02 04:43:36;;;;;;;31.38;19.20;;;16.00;93.70;;;;;;5036948;28;20054;-79
2021/06/02 04:46:04;;;;;;;27.90;17.67;;;15.90;93.70;;;;;;5021290;28;20083;-80
2021/06/02 04:48:30;;;;;;;29.13;17.33;;;16.00;93.80;;;;;;5020907;28;20025;-80
2021/06/02 04:51:02;;;;;;;25.95;17.48;;;16.00;93.80;;;;;;5036485;28;20029;-79
2021/06/02 04:54:09;;;;;;;28.33;17.92;;;16.00;93.90;;;;;;5054884;28;20063;-79
2021/06/02 04:56:56;;;;;;;27.67;18.02;;;15.90;94.10;;;;;;5035423;28;20523;-79
2021/06/02 04:59:43;;;;;;;30.13;17.77;;;16.00;94.10;;;;;;5054121;28;20213;-80
2021/06/02 05:02:45;;;;;;;25.40;16.80;;;16.00;94.20;;;;;;5035379;28;20021;-80
2021/06/02 05:05:23;;;;;;;25.27;16.38;;;16.00;94.20;;;;;;5036972;28;20032;-80
2021/06/02 05:08:07;;;;;;;31.13;18.15;;;16.00;94.20;;;;;;5035601;28;20039;-79
2021/06/02 05:10:58;;;;;;;24.45;18.15;;;16.10;94.20;;;;;;5035607;28;20070;-79
2021/06/02 05:14:01;;;;;;;26.92;16.23;;;16.20;94.10;;;;;;5053206;28;20053;-80
2021/06/02 05:16:45;;;;;;;24.83;15.82;;;16.20;94.00;;;;;;5035399;28;20021;-80
2021/06/02 05:19:23;;;;;;;24.75;16.20;;;16.30;93.90;;;;;;5035781;28;20025;-79
2021/06/02 05:22:26;;;;;;;23.27;15.93;;;16.30;93.90;;;;;;5053294;28;20021;-81
2021/06/02 05:24:58;;;;;;;23.33;16.00;;;16.40;93.90;;;;;;5035281;28;20025;-81
2021/06/02 05:27:27;;;;;;;24.55;14.50;;;16.50;93.80;;;;;;5036649;28;20036;-80
2021/06/02 05:30:10;;;;;;;24.58;15.07;;;16.60;93.70;;;;;;5034738;28;20021;-80
2021/06/02 05:32:59;;;;;;;19.50;13.98;;;16.60;93.70;;;;;;5053335;28;20100;-79
2021/06/02 05:36:00;;;;;;;25.60;14.90;;;16.70;93.60;;;;;;5051057;28;20032;-81
2021/06/02 05:38:45;;;;;;;16.85;12.10;;;16.80;93.40;;;;;;5034011;28;20035;-79
2021/06/02 05:41:36;;;;;;;21.65;12.32;;;16.80;93.30;;;;;;5051659;28;20037;-80
2021/06/02 05:44:45;;;;;;;14.93;10.70;;;16.90;93.40;;;;;;5032820;28;20036;-81
2021/06/02 05:47:19;;;;;;;16.27;10.90;;;17.30;93.10;;;;;;5037294;28;20123;-80
2021/06/02 05:50:10;;;;;;;15.40;10.52;;;17.60;92.60;;;;;;5036914;28;20040;-80
2021/06/02 05:53:13;;;;;;;18.10;10.35;;;17.80;92.10;;;;;;5054168;28;20173;-80
2021/06/02 05:55:53;;;;;;;17.88;9.93;;;17.90;91.60;;;;;;5036803;28;20031;-80
2021/06/02 05:58:46;;;;;;;12.70;8.05;;;18.30;91.80;;;;;;5037457;28;20043;-81
2021/06/02 06:01:41;;;;;;;21.70;8.60;;;19.30;91.40;;;;;;5036581;28;20470;-81
2021/06/02 06:04:39;;;;;;;14.88;7.47;;;21.00;87.50;;;;;;5036263;28;20025;-78
2021/06/02 06:07:47;;;;;;;12.50;7.03;;;22.50;81.90;;;;;;5035813;28;20032;-79
2021/06/02 06:10:34;;;;;;;13.90;6.82;;;23.60;77.30;;;;;;5053527;28;20025;-79
2021/06/02 06:13:37;;;;;;;13.70;7.20;;;24.60;73.80;;;;;;5034413;28;20032;-78
2021/06/02 06:16:26;;;;;;;11.65;7.00;;;25.60;70.80;;;;;;5036281;28;20163;-78
2021/06/02 06:19:04;;;;;;;9.82;6.82;;;26.50;67.70;;;;;;5054084;28;20071;-80
2021/06/02 06:22:24;;;;;;;8.07;5.70;;;26.90;64.70;;;;;;5035568;28;20086;-78
2021/06/02 06:24:53;;;;;;;14.23;5.88;;;26.70;62.60;;;;;;4990840;28;20521;-82
2021/06/02 06:27:44;;;;;;;11.60;5.20;;;26.40;61.80;;;;;;5051049;28;20082;-80
2021/06/02 06:30:20;;;;;;;10.35;5.82;;;26.70;61.10;;;;;;5057192;28;20484;-79
2021/06/02 06:32:50;;;;;;;11.32;5.32;;;27.20;59.90;;;;;;5037997;28;20107;-82
2021/06/02 06:35:16;;;;;;;;;;;27.60;59.20;;;;;;5055373;28;20009;-79
2021/06/02 06:37:47;;;;;;;10.63;5.30;;;28.10;60.50;;;;;;5036381;28;19962;-79
2021/06/02 06:40:16;;;;;;;7.15;4.30;;;28.80;58.50;;;;;;5036068;28;20475;-80
2021/06/02 06:42:45;;;;;;;8.27;4.55;;;29.20;56.60;;;;;;5054304;28;20033;-81
2021/06/02 06:45:24;;;;;;;11.80;5.33;;;29.00;55.20;;;;;;5054537;28;20050;-81
2021/06/02 06:47:51;;;;;;;8.70;5.22;;;28.70;55.00;;;;;;5053189;28;20387;-80
2021/06/02 06:50:19;;;;;;;7.43;5.00;;;28.40;54.50;;;;;;5054805;28;20094;-81
2021/06/02 06:52:49;;;;;;;17.73;5.65;;;28.20;54.60;;;;;;5019507;28;20309;-82
2021/06/02 06:55:15;;;;;;;11.05;4.75;;;28.50;54.20;;;;;;5035728;28;20131;-77
2021/06/02 06:57:44;;;;;;;10.20;5.03;;;28.90;53.80;;;;;;5019408;28;20045;-79
2021/06/02 07:00:10;;;;;;;11.02;4.25;;;29.30;52.90;;;;;;5034803;28;20020;-81
2021/06/02 07:02:38;;;;;;;8.85;4.70;;;29.60;52.20;;;;;;5031303;28;20419;-78
2021/06/02 07:05:06;;;;;;;6.65;4.53;;;29.90;51.70;;;;;;5014822;28;20289;-79
2021/06/02 07:07:34;;;;;;;9.88;4.43;;;30.50;51.40;;;;;;5015135;28;20036;-79
2021/06/02 07:10:01;;;;;;;9.40;4.72;;;30.90;50.70;;;;;;5014696;28;20024;-78
2021/06/02 07:12:27;;;;;;;7.65;4.10;;;31.50;49.90;;;;;;5049003;28;20096;-76
2021/06/02 07:14:54;;;;;;;14.35;4.60;;;31.70;48.70;;;;;;5014366;28;20070;-76
2021/06/02 07:17:23;;;;;;;12.88;4.63;;;31.60;48.30;;;;;;5048804;28;20065;-76
2021/06/02 07:19:57;;;;;;;7.07;4.10;;;31.90;47.90;;;;;;5030983;28;20024;-75
2021/06/02 07:22:24;;;;;;;8.70;4.38;;;32.00;47.20;;;;;;5048864;28;20025;-76
2021/06/02 07:25:00;;;;;;;8.35;3.95;;;31.90;46.80;;;;;;5050690;28;20519;-77
2021/06/02 07:27:27;;;;;;;9.13;4.65;;;31.60;46.70;;;;;;5051074;28;20499;-80
2021/06/02 07:29:53;;;;;;;10.80;4.47;;;31.50;46.60;;;;;;5017300;28;20457;-79
2021/06/02 07:32:19;;;;;;;14.25;5.50;;;31.40;46.40;;;;;;5000372;28;20036;-82
2021/06/02 07:34:45;;;;;;;7.30;4.60;;;31.40;46.00;;;;;;5033439;28;20028;-81
2021/06/02 07:37:11;;;;;;;11.73;4.10;;;31.50;46.10;;;;;;5052265;28;20536;-80
2021/06/02 07:39:37;;;;;;;8.68;3.92;;;31.90;45.80;;;;;;5052174;28;20033;-80
2021/06/02 07:42:04;;;;;;;9.95;3.95;;;32.00;45.40;;;;;;5051841;28;20114;-81
2021/06/02 07:44:30;;;;;;;9.43;4.50;;;32.30;45.40;;;;;;5051523;28;20013;-82
2021/06/02 07:46:56;;;;;;;6.88;3.55;;;32.50;45.40;;;;;;5033710;28;20107;-81
2021/06/02 07:49:22;;;;;;;11.13;3.95;;;32.90;45.10;;;;;;5032439;28;20049;-80
2021/06/02 07:51:51;;;;;;;13.55;4.82;;;33.30;44.90;;;;;;5032009;28;20475;-81
2021/06/02 07:54:20;;;;;;;7.32;3.72;;;33.80;44.20;;;;;;5000683;28;20037;-81
2021/06/02 07:56:46;;;;;;;7.93;3.63;;;34.10;43.70;;;;;;5032909;28;20063;-81
2021/06/02 07:59:12;;;;;;;5.88;3.35;;;34.10;43.20;;;;;;5033348;28;20056;-80
2021/06/02 08:01:38;;;;;;;5.05;3.35;;;34.00;43.50;;;;;;5032152;28;20031;-79
2021/06/02 08:04:04;;;;;;;7.55;4.03;;;34.30;43.30;;;;;;5031580;28;20037;-80
2021/06/02 08:06:30;;;;;;;9.50;4.15;;;34.40;42.40;;;;;;5031516;28;20117;-79
2021/06/02 08:08:56;;;;;;;11.88;3.90;;;34.50;42.20;;;;;;5030253;28;20057;-80
2021/06/02 08:11:22;;;;;;;8.57;4.05;;;34.50;41.80;;;;;;5014246;28;20470;-80
2021/06/02 08:13:47;;;;;;;5.00;3.53;;;34.30;41.80;;;;;;5015497;28;20079;-79
2021/06/02 08:16:13;;;;;;;7.20;3.30;;;34.40;41.70;;;;;;5034136;28;20079;-79
2021/06/02 08:18:39;;;;;;;8.95;3.88;;;34.40;41.70;;;;;;5018070;28;20033;-79
2021/06/02 08:21:06;;;;;;;9.55;4.03;;;34.30;41.40;;;;;;4999002;28;20112;-75
2021/06/02 08:23:31;;;;;;;6.85;4.18;;;34.40;41.30;;;;;;5049730;28;20040;-76
2021/06/02 08:25:57;;;;;;;9.43;3.63;;;34.50;41.10;;;;;;5048689;28;20418;-76
2021/06/02 08:28:23;;;;;;;8.32;4.70;;;34.40;41.20;;;;;;5048774;28;20051;-76
2021/06/02 08:30:50;;;;;;;7.22;3.97;;;34.20;41.00;;;;;;5048007;28;20025;-77
2021/06/02 08:33:17;;;;;;;9.05;4.40;;;33.40;41.00;;;;;;5048698;28;20021;-76
2021/06/02 08:35:43;;;;;;;7.50;4.60;;;32.40;41.30;;;;;;5048735;28;20510;-76
2021/06/02 08:38:09;;;;;;;7.90;4.32;;;31.40;41.20;;;;;;5030342;28;20025;-77
2021/06/02 08:40:35;;;;;;;7.75;4.13;;;30.30;41.60;;;;;;5048375;28;20029;-78
2021/06/02 08:43:01;;;;;;;16.55;5.97;;;29.50;42.50;;;;;;5048617;28;20047;-77
2021/06/02 08:45:28;;;;;;;8.60;4.57;;;28.90;43.40;;;;;;5048339;28;20029;-76
2021/06/02 08:47:54;;;;;;;9.88;4.88;;;28.50;44.10;;;;;;5031448;28;20386;-76
2021/06/02 08:50:20;;;;;;;6.32;4.22;;;28.20;44.70;;;;;;5049833;28;20032;-76
2021/06/02 08:52:47;;;;;;;8.93;4.90;;;28.00;45.10;;;;;;5030864;28;20033;-79
2021/06/02 08:55:16;;;;;;;10.80;4.53;;;27.80;45.40;;;;;;5047908;28;20025;-75
2021/06/02 08:57:47;;;;;;;12.43;4.90;;;27.70;46.20;;;;;;5047999;28;20029;-77
2021/06/02 09:00:15;;;;;;;11.57;4.40;;;27.60;46.30;;;;;;5047672;28;20051;-76
2021/06/02 09:02:43;;;;;;;10.43;4.57;;;27.40;46.60;;;;;;5047913;28;20470;-77
2021/06/02 09:12:09;;;;;;;10.13;4.53;;;26.50;47.60;;;;;;4997975;28;20029;-76
2021/06/02 09:14:38;;;;;;;12.30;4.70;;;26.20;47.90;;;;;;5027820;28;20029;-76
2021/06/02 09:17:06;;;;;;;9.05;4.70;;;26.10;48.20;;;;;;5011082;28;20040;-76
2021/06/02 09:19:41;;;;;;;10.75;5.20;;;25.90;48.40;;;;;;5031154;28;20342;-78
2021/06/02 09:22:09;;;;;;;11.98;4.85;;;25.70;48.70;;;;;;5032937;28;20029;-76
2021/06/02 09:24:50;;;;;;;12.75;5.15;;;25.50;48.80;;;;;;5033527;28;20048;-75
2021/06/02 09:27:18;;;;;;;14.85;4.88;;;25.50;49.10;;;;;;5032276;28;20033;-76
2021/06/02 09:29:52;;;;;;;11.88;6.18;;;25.30;49.00;;;;;;4998266;28;20147;-76
2021/06/02 09:32:20;;;;;;;14.65;5.85;;;25.00;49.00;;;;;;5014820;28;20120;-76
2021/06/02 09:34:46;;;;;;;12.80;5.68;;;24.80;49.50;;;;;;5033412;28;20033;-76
2021/06/02 09:37:12;;;;;;;11.75;5.10;;;24.70;49.70;;;;;;5033246;28;20116;-76
2021/06/02 09:39:40;;;;;;;15.15;5.72;;;24.70;50.00;;;;;;5051572;28;20124;-76
2021/06/02 09:42:28;;;;;;;11.13;5.32;;;24.90;50.20;;;;;;5033931;28;20025;-76
2021/06/02 09:45:03;;;;;;;14.73;7.20;;;25.00;50.20;;;;;;5034078;28;20040;-77
2021/06/02 09:47:52;;;;;;;21.23;6.60;;;25.00;50.30;;;;;;5034595;28;20078;-77
2021/06/02 09:50:39;;;;;;;14.05;6.63;;;24.90;50.30;;;;;;5051272;28;20119;-75
2021/06/02 09:53:07;;;;;;;17.88;6.45;;;24.80;50.40;;;;;;5050739;28;20028;-76
2021/06/02 09:55:35;;;;;;;15.27;6.82;;;24.60;50.90;;;;;;5035377;28;20029;-76
2021/06/02 09:58:01;;;;;;;15.05;6.75;;;24.60;51.60;;;;;;5053192;28;20055;-76
2021/06/02 10:00:29;;;;;;;15.02;6.85;;;24.70;51.90;;;;;;5056394;28;20017;-79
2021/06/02 10:03:01;;;;;;;13.27;6.82;;;24.90;51.90;;;;;;5056906;28;20353;-79
2021/06/02 10:05:40;;;;;;;12.90;6.18;;;25.50;51.70;;;;;;5019952;28;20025;-81
2021/06/02 10:08:11;;;;;;;15.98;6.60;;;26.20;51.10;;;;;;5054231;28;20017;-79
2021/06/02 10:10:37;;;;;;;16.50;7.20;;;26.60;50.40;;;;;;5036607;28;20025;-81
2021/06/02 10:13:12;;;;;;;15.65;6.72;;;27.10;50.00;;;;;;5030817;28;20607;-80
2021/06/02 10:15:46;;;;;;;12.40;8.15;;;27.50;49.60;;;;;;5054580;28;20025;-79
2021/06/02 10:18:29;;;;;;;12.18;7.43;;;27.60;49.00;;;;;;5038460;28;20052;-78
2021/06/02 10:21:13;;;;;;;20.10;7.45;;;27.30;49.00;;;;;;5019823;28;20391;-79
2021/06/02 10:23:44;;;;;;;14.80;7.70;;;27.20;49.80;;;;;;5053518;28;20573;-79
2021/06/02 10:26:18;;;;;;;12.02;7.70;;;27.40;49.60;;;;;;5034186;28;20032;-80
2021/06/02 10:28:46;;;;;;;11.57;6.90;;;27.80;49.20;;;;;;5034707;28;20040;-79
2021/06/02 10:31:14;;;;;;;15.27;7.53;;;28.30;49.30;;;;;;5052187;28;20131;-79
2021/06/02 10:33:40;;;;;;;16.40;7.50;;;28.60;48.50;;;;;;5034403;28;20098;-78
2021/06/02 10:36:09;;;;;;;13.63;7.55;;;28.50;47.90;;;;;;5052664;28;20418;-78
2021/06/02 10:38:53;;;;;;;;;;;27.90;47.40;;;;;;5053240;28;20045;-79
2021/06/02 10:41:47;;;;;;;17.98;8.52;;;27.20;47.70;;;;;;5035040;28;19973;-79
2021/06/02 10:44:17;;;;;;;18.15;8.77;;;26.50;48.30;;;;;;5035160;28;20028;-79
2021/06/02 10:46:44;;;;;;;16.00;7.72;;;26.00;48.60;;;;;;5052124;28;20052;-77
2021/06/02 10:49:10;;;;;;;13.45;8.18;;;25.60;49.10;;;;;;5034564;28;20037;-80
2021/06/02 10:51:36;;;;;;;17.50;8.70;;;25.30;49.30;;;;;;5034905;28;20132;-80
2021/06/02 10:54:11;;;;;;;23.45;7.82;;;25.00;49.60;;;;;;5034792;28;20053;-78
2021/06/02 10:56:42;;;;;;;15.45;7.55;;;24.60;49.90;;;;;;5034270;28;20049;-80
2021/06/02 10:59:27;;;;;;;18.08;8.82;;;24.20;50.60;;;;;;5052140;28;20103;-79
2021/06/02 11:02:08;;;;;;;16.25;8.55;;;24.10;50.80;;;;;;5016755;28;20072;-80
2021/06/02 11:04:38;;;;;;;17.85;8.57;;;24.00;50.90;;;;;;5035153;28;20058;-80
2021/06/02 11:07:27;;;;;;;19.90;8.63;;;23.90;51.60;;;;;;5053785;28;20025;-80
2021/06/02 11:10:01;;;;;;;19.30;8.37;;;23.60;51.50;;;;;;5043999;28;20048;-82
2021/06/02 11:12:45;;;;;;;19.10;8.48;;;23.50;51.60;;;;;;5031683;28;20309;-81
2021/06/02 11:15:42;;;;;;;17.17;7.55;;;23.40;51.70;;;;;;5034136;28;20042;-78
2021/06/02 11:18:15;;;;;;;18.85;7.47;;;23.10;52.00;;;;;;5052485;28;20028;-80
2021/06/02 11:20:46;;;;;;;15.32;8.70;;;22.90;52.10;;;;;;5052123;28;20021;-79
2021/06/02 11:23:14;;;;;;;16.38;7.85;;;22.70;52.60;;;;;;5033641;28;20021;-79
2021/06/02 11:25:41;;;;;;;14.27;7.25;;;22.60;52.80;;;;;;5032765;28;20128;-79
2021/06/02 11:28:12;;;;;;;19.27;9.07;;;22.70;53.30;;;;;;5032649;28;20035;-80
2021/06/02 11:30:38;;;;;;;11.93;7.25;;;22.80;53.40;;;;;;5051672;28;20021;-79
2021/06/02 11:33:10;;;;;;;19.88;8.20;;;22.90;53.30;;;;;;5033487;28;20029;-80
2021/06/02 11:35:54;;;;;;;18.83;8.27;;;22.90;53.40;;;;;;5033256;28;20066;-80
2021/06/02 11:38:22;;;;;;;18.58;8.38;;;23.00;53.40;;;;;;5051083;28;20021;-79
2021/06/02 11:40:49;;;;;;;18.00;9.40;;;22.90;53.00;;;;;;5033105;28;20025;-79
2021/06/02 11:43:15;;;;;;;16.60;8.82;;;22.70;53.10;;;;;;5018032;28;20048;-79
2021/06/02 11:45:44;;;;;;;14.32;8.88;;;22.50;53.70;;;;;;5034589;28;20070;-79
2021/06/02 11:48:22;;;;;;;27.38;10.18;;;22.30;54.50;;;;;;5052861;28;20029;-80
2021/06/02 11:50:48;;;;;;;21.73;9.27;;;21.90;55.10;;;;;;5051978;28;20029;-68
2021/06/02 11:53:14;;;;;;;17.63;8.68;;;21.70;55.50;;;;;;5053245;28;20566;-79
2021/06/02 11:55:40;;;;;;;24.17;9.40;;;21.50;56.70;;;;;;5053458;28;20481;-78
2021/06/02 11:58:06;;;;;;;21.73;9.77;;;21.40;56.40;;;;;;5018981;28;20049;-79
2021/06/02 12:00:33;;;;;;;20.85;9.40;;;21.40;56.50;;;;;;5052081;28;20024;-80
2021/06/02 12:03:06;;;;;;;21.92;9.25;;;21.40;56.90;;;;;;5052862;28;20028;-77
2021/06/02 12:05:39;;;;;;;19.75;8.60;;;21.40;56.90;;;;;;5034039;28;20040;-81
2021/06/02 12:08:13;;;;;;;20.15;9.40;;;21.50;56.70;;;;;;5017942;28;20532;-78
2021/06/02 12:10:43;;;;;;;16.92;8.52;;;21.50;56.50;;;;;;5018507;28;20033;-79
2021/06/02 12:13:26;;;;;;;18.08;9.55;;;21.50;56.70;;;;;;5037371;28;20124;-79
2021/06/02 12:15:58;;;;;;;21.50;10.80;;;21.50;58.00;;;;;;5035779;28;20092;-76
2021/06/02 12:18:46;;;;;;;19.65;10.02;;;21.50;57.70;;;;;;5035570;28;20028;-77
2021/06/02 12:21:22;;;;;;;28.85;11.55;;;21.40;58.70;;;;;;5052779;28;20108;-79
2021/06/02 12:24:03;;;;;;;21.48;11.45;;;21.30;58.70;;;;;;5054196;28;20025;-77
2021/06/02 12:26:32;;;;;;;32.03;11.80;;;21.40;59.30;;;;;;5052662;28;20017;-79
2021/06/02 12:29:00;;;;;;;32.40;12.10;;;21.50;60.50;;;;;;5035103;28;20048;-79
2021/06/02 12:31:33;;;;;;;19.80;10.95;;;21.40;60.70;;;;;;5033618;28;20036;-77
2021/06/02 12:34:07;;;;;;;27.50;12.65;;;21.20;60.30;;;;;;5051817;28;20122;-79
2021/06/02 12:36:33;;;;;;;29.00;11.15;;;21.00;61.10;;;;;;5051113;28;20467;-80
2021/06/02 12:39:10;;;;;;;28.10;11.02;;;20.90;61.50;;;;;;5034177;28;20025;-78
2021/06/02 12:41:36;;;;;;;22.58;11.02;;;20.80;61.60;;;;;;5033321;28;20027;-80
2021/06/02 12:44:04;;;;;;;26.65;11.60;;;20.80;61.20;;;;;;5033628;28;20052;-80
2021/06/02 12:46:31;;;;;;;34.33;12.20;;;20.70;61.30;;;;;;5051417;28;20118;-78
2021/06/02 12:48:57;;;;;;;22.02;12.05;;;20.70;61.80;;;;;;5016882;28;20047;-80
2021/06/02 12:51:24;;;;;;;26.40;10.85;;;20.80;61.70;;;;;;5050527;28;20025;-80
2021/06/02 12:53:51;;;;;;;26.77;11.07;;;21.00;61.70;;;;;;5030405;28;20029;-76
2021/06/02 12:56:19;;;;;;;30.48;13.27;;;21.10;62.00;;;;;;5048883;28;20147;-77
2021/06/02 12:58:54;;;;;;;21.83;11.32;;;21.30;62.20;;;;;;5031642;28;20067;-78
2021/06/02 13:01:22;;;;;;;28.27;12.48;;;21.40;61.60;;;;;;5031496;28;20021;-79
2021/06/02 13:03:52;;;;;;;29.08;10.93;;;21.40;61.10;;;;;;5032198;28;20056;-78
2021/06/02 13:06:19;;;;;;;22.52;12.32;;;21.40;61.60;;;;;;5033370;28;20029;-78
2021/06/02 13:08:46;;;;;;;24.13;11.25;;;21.40;61.40;;;;;;5032788;28;20491;-80
2021/06/02 13:11:13;;;;;;;25.42;10.70;;;21.30;61.30;;;;;;5033002;28;20360;-81
2021/06/02 13:13:48;;;;;;;22.73;10.77;;;21.30;61.60;;;;;;5033250;28;20049;-78
2021/06/02 13:16:13;;;;;;;23.45;11.20;;;21.30;61.70;;;;;;5024855;28;20059;-80
2021/06/02 13:18:39;;;;;;;25.35;9.77;;;21.10;61.50;;;;;;5032249;28;20098;-78
2021/06/02 13:21:10;;;;;;;24.33;10.80;;;21.10;61.80;;;;;;5032500;28;20039;-79